This is the latest recevied weather packets stored in our database for station/object N4PWG. If no packets are shown the sender has not sent any weather packets the latest 10 day(s).
| Time | Temp. | Humidity | Pressure | Rain* | Wind** | Luminosity | Snow |
|---|---|---|---|---|---|---|---|
| 1777751654 | 18.89° C | 46% | 1033.9 hPa | 0 mm | - | 121 W/m² | - |
| 1777751350 | 20.56° C | 39% | 1033.8 hPa | 0 mm | - | 159 W/m² | - |
| 1777751047 | 20° C | 41% | 1033.8 hPa | 0 mm | - | 678 W/m² | - |
| 1777750743 | 19.44° C | 43% | 1033.6 hPa | 0 mm | - | 648 W/m² | - |
| 1777750440 | 19.44° C | 41% | 1033.9 hPa | 0 mm | - | 715 W/m² | - |
| 1777750135 | 18.33° C | 43% | 1033.8 hPa | 0 mm | - | 237 W/m² | - |
| 1777749833 | 18.33° C | 44% | 1034.1 hPa | 0 mm | - | 155 W/m² | - |
| 1777749530 | 20° C | 41% | 1033.9 hPa | 0 mm | - | 128 W/m² | - |
| 1777749228 | 20° C | 44% | 1033.6 hPa | 0 mm | - | 757 W/m² | - |
| 1777748925 | 19.44° C | 42% | 1034 hPa | 0 mm | - | 747 W/m² | - |
| 1777748622 | 20° C | 42% | 1033.8 hPa | 0 mm | - | 747 W/m² | - |
| 1777748318 | 20° C | 40% | 1034.1 hPa | 0 mm | - | 390 W/m² | - |
| 1777748014 | 20° C | 39% | 1033.8 hPa | 0 mm | - | 245 W/m² | - |
| 1777747711 | 20.56° C | 42% | 1034 hPa | 0 mm | - | 774 W/m² | - |
| 1777747406 | 20.56° C | 39% | 1033.8 hPa | 0 mm | - | 736 W/m² | - |
| 1777747103 | 20° C | 42% | 1034.1 hPa | 0 mm | - | 727 W/m² | - |
| 1777746799 | 20° C | 41% | 1034 hPa | 0 mm | - | 738 W/m² | - |
| 1777746494 | 20° C | 40% | 1034.1 hPa | 0 mm | - | 753 W/m² | - |
| 1777746190 | 20° C | 41% | 1034.1 hPa | 0 mm | - | 764 W/m² | - |
| 1777745887 | 19.44° C | 40% | 1034.1 hPa | 0 mm | - | 276 W/m² | - |
| 1777745586 | 19.44° C | 43% | 1034.2 hPa | 0 mm | - | 730 W/m² | - |
| 1777745283 | 18.89° C | 43% | 1034.2 hPa | 0 mm | - | 204 W/m² | - |
| 1777744980 | 18.89° C | 43% | 1034.2 hPa | 0 mm | - | 871 W/m² | - |
| 1777744676 | 20° C | 40% | 1034.1 hPa | 0 mm | - | 190 W/m² | - |
| 1777744370 | 20.56° C | 43% | 1034.1 hPa | 0 mm | - | 197 W/m² | - |
* Rain latest hour (hover to see other rain measurements)
** Current wind speed in m/s (hover to see current wind gust speed)